createdAt,value
2018-05-09T00:00:22.204Z,1.77
2018-05-09T00:02:50.132Z,2.80
2018-05-09T00:05:18.053Z,2.90
2018-05-09T00:07:45.964Z,3.97
2018-05-09T00:10:13.986Z,2.30
2018-05-09T00:12:41.997Z,2.00
2018-05-09T00:15:10.699Z,2.17
2018-05-09T00:17:38.674Z,2.13
2018-05-09T00:20:06.587Z,2.67
2018-05-09T00:22:34.581Z,2.50
2018-05-09T00:25:03.251Z,2.07
2018-05-09T00:27:31.203Z,4.97
2018-05-09T00:29:59.215Z,4.00
2018-05-09T00:32:27.902Z,2.07
2018-05-09T00:34:56.572Z,2.63
2018-05-09T00:37:25.235Z,3.30
2018-05-09T00:39:53.242Z,2.33
2018-05-09T00:42:21.925Z,2.07
2018-05-09T00:44:50.631Z,1.97
2018-05-09T00:47:18.613Z,3.73
2018-05-09T00:49:46.646Z,2.13
2018-05-09T00:52:15.386Z,2.30
2018-05-09T00:54:43.353Z,2.77
2018-05-09T00:57:11.251Z,2.57
2018-05-09T00:59:39.163Z,4.13
2018-05-09T01:02:07.079Z,2.77
2018-05-09T01:04:35.073Z,2.43
2018-05-09T01:07:03.857Z,2.30
2018-05-09T01:09:31.917Z,3.07
2018-05-09T01:11:59.813Z,2.43
2018-05-09T01:14:28.542Z,2.73
2018-05-09T01:16:56.552Z,2.47
2018-05-09T01:19:24.568Z,3.33
2018-05-09T01:21:52.502Z,2.57
2018-05-09T01:24:21.258Z,2.23
2018-05-09T01:26:49.260Z,2.20
2018-05-09T01:29:17.971Z,2.03
2018-05-09T01:31:45.954Z,2.60
2018-05-09T01:34:13.862Z,5.37
2018-05-09T01:36:41.835Z,2.50
2018-05-09T01:39:09.833Z,2.20
2018-05-09T01:41:38.707Z,3.13
2018-05-09T01:44:06.693Z,2.50
2018-05-09T01:46:35.400Z,2.57
2018-05-09T01:49:03.386Z,2.27
2018-05-09T01:51:31.366Z,3.23
2018-05-09T01:53:59.256Z,2.97
2018-05-09T01:56:27.144Z,2.17
2018-05-09T01:58:55.064Z,2.73
2018-05-09T02:01:22.975Z,2.87
2018-05-09T02:03:50.983Z,3.90
2018-05-09T02:06:18.922Z,3.03
2018-05-09T02:08:46.887Z,6.13
2018-05-09T02:11:14.863Z,4.40
2018-05-09T02:13:43.653Z,3.53
2018-05-09T02:16:12.398Z,4.10
2018-05-09T02:18:40.306Z,6.27
2018-05-09T02:21:09.060Z,11.50
2018-05-09T02:23:37.056Z,8.97
2018-05-09T02:26:05.026Z,6.40
2018-05-09T02:28:32.942Z,3.87
2018-05-09T02:31:00.893Z,7.03
2018-05-09T02:33:28.904Z,3.77
2018-05-09T02:35:56.877Z,4.40
2018-05-09T02:38:25.615Z,5.03
2018-05-09T02:40:54.367Z,3.40
2018-05-09T02:43:22.353Z,6.73
2018-05-09T02:45:50.336Z,3.83
2018-05-09T02:48:19.005Z,4.20
2018-05-09T02:50:47.105Z,5.20
2018-05-09T02:53:15.091Z,4.17
2018-05-09T02:55:43.077Z,5.97
2018-05-09T02:58:11.097Z,4.33
2018-05-09T03:00:39.790Z,3.60
2018-05-09T03:03:08.471Z,4.10
2018-05-09T03:05:36.482Z,4.63
2018-05-09T03:08:04.479Z,4.97
2018-05-09T03:10:32.382Z,4.10
2018-05-09T03:13:01.191Z,6.20
2018-05-09T03:15:29.098Z,6.17
2018-05-09T03:17:57.077Z,6.63
2018-05-09T03:20:25.119Z,7.33
2018-05-09T03:22:53.071Z,5.33
2018-05-09T03:25:20.960Z,6.87
2018-05-09T03:27:49.002Z,5.70
2018-05-09T03:30:17.727Z,6.70
2018-05-09T03:32:45.679Z,7.37
2018-05-09T03:35:13.646Z,8.17
2018-05-09T03:37:41.532Z,6.43
2018-05-09T03:40:09.548Z,6.47
2018-05-09T03:42:37.695Z,6.37
2018-05-09T03:45:06.434Z,6.93
2018-05-09T03:47:34.359Z,9.93
2018-05-09T03:50:02.384Z,7.07
2018-05-09T03:52:30.302Z,6.80
2018-05-09T03:54:58.231Z,6.90
2018-05-09T03:57:26.201Z,6.30
2018-05-09T03:59:54.116Z,7.07
2018-05-09T04:02:38.010Z,6.53
2018-05-09T04:05:17.733Z,7.23
2018-05-09T04:07:58.363Z,5.97
2018-05-09T04:10:26.274Z,7.40
2018-05-09T04:12:54.974Z,8.40
2018-05-09T04:15:22.914Z,6.80
2018-05-09T04:17:51.678Z,8.00
2018-05-09T04:20:19.734Z,8.87
2018-05-09T04:22:47.765Z,7.23
2018-05-09T04:25:15.716Z,8.40
2018-05-09T04:27:44.482Z,7.70
2018-05-09T04:30:12.433Z,7.57
2018-05-09T04:32:40.393Z,6.57
2018-05-09T04:35:08.327Z,8.53
2018-05-09T04:37:36.366Z,6.07
2018-05-09T04:40:04.347Z,9.17
2018-05-09T04:42:33.057Z,7.77
2018-05-09T04:45:00.998Z,8.47
2018-05-09T04:47:28.901Z,6.87
2018-05-09T04:49:56.779Z,8.27
2018-05-09T04:52:24.699Z,7.17
2018-05-09T04:54:52.702Z,7.90
2018-05-09T04:57:20.595Z,8.00
2018-05-09T04:59:48.535Z,7.83
2018-05-09T05:02:16.502Z,10.13
2018-05-09T05:04:44.474Z,6.83
2018-05-09T05:07:12.474Z,8.43
2018-05-09T05:09:40.383Z,6.80
2018-05-09T05:12:08.393Z,6.63
2018-05-09T05:14:36.518Z,9.27
2018-05-09T05:17:04.437Z,7.50
2018-05-09T05:19:32.347Z,9.93
2018-05-09T05:22:00.392Z,7.00
2018-05-09T05:24:28.371Z,7.47
2018-05-09T05:26:56.363Z,10.50
2018-05-09T05:29:24.449Z,9.43
2018-05-09T05:31:53.130Z,9.17
2018-05-09T05:34:21.063Z,7.93
2018-05-09T05:36:49.003Z,13.23
2018-05-09T05:39:16.907Z,8.83
2018-05-09T05:41:44.796Z,9.87
2018-05-09T05:44:12.726Z,6.87
2018-05-09T05:46:40.650Z,6.27
2018-05-09T05:49:09.391Z,5.03
2018-05-09T05:51:37.496Z,5.37
2018-05-09T05:54:05.475Z,4.20
2018-05-09T05:56:33.539Z,5.62
2018-05-09T05:59:01.639Z,4.15
2018-05-09T06:01:29.617Z,6.43
2018-05-09T06:03:57.511Z,7.07
2018-05-09T06:06:25.518Z,5.80
2018-05-09T06:08:53.398Z,4.50
2018-05-09T06:11:22.100Z,3.20
2018-05-09T06:13:50.826Z,4.13
2018-05-09T06:16:18.774Z,2.83
2018-05-09T06:18:46.761Z,4.28
2018-05-09T06:21:14.697Z,3.93
2018-05-09T06:23:43.438Z,2.80
2018-05-09T06:26:11.370Z,3.00
2018-05-09T06:28:39.446Z,4.07
2018-05-09T06:31:07.366Z,2.80
2018-05-09T06:33:35.268Z,3.13
2018-05-09T06:36:03.284Z,3.17
2018-05-09T06:38:31.217Z,3.33
2018-05-09T06:40:59.179Z,3.33
2018-05-09T06:43:27.111Z,2.20
2018-05-09T06:45:55.108Z,3.10
2018-05-09T06:48:23.862Z,2.95
2018-05-09T06:50:51.819Z,4.10
2018-05-09T06:53:19.822Z,4.77
2018-05-09T06:55:48.609Z,3.07
2018-05-09T06:58:17.385Z,3.47
2018-05-09T07:00:45.358Z,5.87
2018-05-09T07:03:13.403Z,4.07
2018-05-09T07:05:41.426Z,5.47
2018-05-09T07:08:10.088Z,3.53
2018-05-09T07:10:38.258Z,3.47
2018-05-09T07:13:06.218Z,3.40
2018-05-09T07:15:34.220Z,6.37
2018-05-09T07:18:02.934Z,3.83
2018-05-09T07:20:30.900Z,4.07
2018-05-09T07:22:58.862Z,3.10
2018-05-09T07:25:26.806Z,2.10
2018-05-09T07:27:55.513Z,3.53
2018-05-09T07:30:24.223Z,3.90
2018-05-09T07:32:52.146Z,4.50
2018-05-09T07:35:20.084Z,3.23
2018-05-09T07:37:48.067Z,2.80
2018-05-09T07:40:15.965Z,3.17
2018-05-09T07:42:44.730Z,4.03
2018-05-09T07:45:12.670Z,4.20
2018-05-09T07:47:40.678Z,2.40
2018-05-09T07:50:08.607Z,4.40
2018-05-09T07:52:36.589Z,4.47
2018-05-09T07:55:04.550Z,5.27
2018-05-09T07:57:32.480Z,2.93
2018-05-09T08:00:01.179Z,3.60
2018-05-09T08:02:29.078Z,5.70
2018-05-09T08:04:57.051Z,3.07
2018-05-09T08:07:25.719Z,4.07
2018-05-09T08:09:53.705Z,5.45
2018-05-09T08:12:21.736Z,4.00
2018-05-09T08:14:49.620Z,4.47
2018-05-09T08:17:17.580Z,5.25
2018-05-09T08:19:45.588Z,5.27
2018-05-09T08:22:13.516Z,6.67
2018-05-09T08:24:41.512Z,13.23
2018-05-09T08:27:09.451Z,7.20
2018-05-09T08:29:37.442Z,4.85
2018-05-09T08:32:05.362Z,4.50
2018-05-09T08:34:33.318Z,8.90
2018-05-09T08:37:01.310Z,3.73
2018-05-09T08:39:29.975Z,5.77
2018-05-09T08:41:57.895Z,6.13
2018-05-09T08:44:25.820Z,6.07
2018-05-09T08:46:53.782Z,5.17
2018-05-09T08:49:21.798Z,7.43
2018-05-09T08:51:49.810Z,5.82
2018-05-09T08:54:17.718Z,7.00
2018-05-09T08:56:46.445Z,7.03
2018-05-09T08:59:14.421Z,9.50
2018-05-09T09:01:43.152Z,5.73
2018-05-09T09:04:11.929Z,8.00
2018-05-09T09:06:39.861Z,4.03
2018-05-09T09:09:07.866Z,5.53
2018-05-09T09:11:35.780Z,6.03
2018-05-09T09:14:03.675Z,3.97
2018-05-09T09:16:32.358Z,4.90
2018-05-09T09:19:00.364Z,8.50
2018-05-09T09:21:28.337Z,9.90
2018-05-09T09:23:56.257Z,5.63
2018-05-09T09:26:24.214Z,5.22
2018-05-09T09:28:52.115Z,6.65
2018-05-09T09:31:20.033Z,6.32
2018-05-09T09:33:48.746Z,9.10
2018-05-09T09:36:16.681Z,6.07
2018-05-09T09:38:45.449Z,7.47
2018-05-09T09:41:13.538Z,6.10
2018-05-09T09:43:42.282Z,4.40
2018-05-09T09:46:10.172Z,7.20
2018-05-09T09:48:38.257Z,7.33
2018-05-09T09:51:06.950Z,10.33
2018-05-09T09:53:35.715Z,9.53
2018-05-09T09:56:03.647Z,3.60
2018-05-09T09:58:31.598Z,3.47
2018-05-09T10:00:59.567Z,3.90
2018-05-09T10:03:27.529Z,5.37
2018-05-09T10:05:56.254Z,3.17
2018-05-09T10:08:24.146Z,6.53
2018-05-09T10:10:52.112Z,3.87
2018-05-09T10:13:20.046Z,3.57
2018-05-09T10:15:48.023Z,4.43
2018-05-09T10:18:16.060Z,3.80
2018-05-09T10:20:44.733Z,6.10
2018-05-09T10:23:13.508Z,5.13
2018-05-09T10:25:41.522Z,7.77
2018-05-09T10:28:09.424Z,3.00
2018-05-09T10:30:37.438Z,7.63
2018-05-09T10:33:06.239Z,4.77
2018-05-09T10:35:34.977Z,5.83
2018-05-09T10:38:02.915Z,7.60
2018-05-09T10:40:30.870Z,3.83
2018-05-09T10:42:58.798Z,3.73
2018-05-09T10:45:26.799Z,3.40
2018-05-09T10:47:55.507Z,3.27
2018-05-09T10:50:23.545Z,6.30
2018-05-09T10:52:52.311Z,3.77
2018-05-09T10:55:20.391Z,3.80
2018-05-09T10:57:48.319Z,4.37
2018-05-09T11:00:16.264Z,4.73
2018-05-09T11:02:44.235Z,2.90
2018-05-09T11:05:12.145Z,6.00
2018-05-09T11:07:40.082Z,4.60
2018-05-09T11:10:08.027Z,6.40
2018-05-09T11:12:36.779Z,3.90
2018-05-09T11:15:04.747Z,3.53
2018-05-09T11:17:32.749Z,5.90
2018-05-09T11:20:00.692Z,6.83
2018-05-09T11:22:31.476Z,2.70
2018-05-09T11:24:59.485Z,4.33
2018-05-09T11:27:27.410Z,3.87
2018-05-09T11:29:55.402Z,3.90
2018-05-09T11:32:23.327Z,4.97
2018-05-09T11:34:51.995Z,4.43
2018-05-09T11:37:19.927Z,3.27
2018-05-09T11:39:47.859Z,4.60
2018-05-09T11:42:16.563Z,3.43
2018-05-09T11:44:44.521Z,5.53
2018-05-09T11:47:13.249Z,4.77
2018-05-09T11:49:41.164Z,7.63
2018-05-09T11:52:09.863Z,4.33
2018-05-09T11:54:38.630Z,3.17
2018-05-09T11:57:06.511Z,3.70
2018-05-09T11:59:35.213Z,3.50
2018-05-09T12:02:03.282Z,4.60
2018-05-09T12:04:31.979Z,5.00
2018-05-09T12:06:59.884Z,3.50
2018-05-09T12:09:27.824Z,8.20
2018-05-09T12:11:55.795Z,5.27
2018-05-09T12:14:23.700Z,4.17
2018-05-09T12:16:52.406Z,3.07
2018-05-09T12:19:20.332Z,3.40
2018-05-09T12:21:48.270Z,5.43
2018-05-09T12:24:16.188Z,3.93
2018-05-09T12:26:44.114Z,3.40
2018-05-09T12:29:12.033Z,4.82
2018-05-09T12:31:40.004Z,6.15
2018-05-09T12:34:07.951Z,2.97
2018-05-09T12:36:35.952Z,2.58
2018-05-09T12:39:04.066Z,4.43
2018-05-09T12:41:32.065Z,2.85
2018-05-09T12:44:00.035Z,3.00
2018-05-09T12:46:27.990Z,3.35
2018-05-09T12:48:55.980Z,3.37
2018-05-09T12:51:23.931Z,2.53
2018-05-09T12:53:51.892Z,5.57
2018-05-09T12:56:19.819Z,5.00
2018-05-09T12:58:47.797Z,4.40
2018-05-09T13:01:16.564Z,4.28
2018-05-09T13:03:44.547Z,4.28
2018-05-09T13:06:12.546Z,3.22
2018-05-09T13:08:40.589Z,5.87
2018-05-09T13:11:08.500Z,5.20
2018-05-09T13:13:36.418Z,4.93
2018-05-09T13:16:04.425Z,5.33
2018-05-09T13:18:32.341Z,3.57
2018-05-09T13:21:00.271Z,4.00
2018-05-09T13:23:28.301Z,3.00
2018-05-09T13:25:56.367Z,3.40
2018-05-09T13:28:24.294Z,5.25
2018-05-09T13:30:52.306Z,4.80
2018-05-09T13:33:20.328Z,3.33
2018-05-09T13:35:48.265Z,3.70
2018-05-09T13:38:17.027Z,4.70
2018-05-09T13:40:45.957Z,5.20
2018-05-09T13:43:13.886Z,3.85
2018-05-09T13:45:41.823Z,4.00
2018-05-09T13:48:09.809Z,2.60
2018-05-09T13:50:37.803Z,4.55
2018-05-09T13:53:05.885Z,6.00
2018-05-09T13:55:33.784Z,4.97
2018-05-09T13:58:01.724Z,4.43
2018-05-09T14:00:30.464Z,8.40
2018-05-09T14:02:58.366Z,3.73
2018-05-09T14:05:26.311Z,7.40
2018-05-09T14:07:54.879Z,4.77
2018-05-09T14:10:22.819Z,4.77
2018-05-09T14:12:51.491Z,3.80
2018-05-09T14:15:20.254Z,4.07
2018-05-09T14:17:48.246Z,8.10
2018-05-09T14:20:16.170Z,3.50
2018-05-09T14:22:44.185Z,4.07
2018-05-09T14:25:12.926Z,3.40
2018-05-09T14:27:40.922Z,4.50
2018-05-09T14:30:08.914Z,6.40
2018-05-09T14:32:37.691Z,4.80
2018-05-09T14:35:05.708Z,3.60
2018-05-09T14:37:33.729Z,6.73
2018-05-09T14:40:01.641Z,5.27
2018-05-09T14:42:29.636Z,3.50
2018-05-09T14:44:57.673Z,3.77
2018-05-09T14:47:26.375Z,6.63
2018-05-09T14:49:54.358Z,3.27
2018-05-09T14:52:22.356Z,2.93
2018-05-09T14:54:50.279Z,4.77
2018-05-09T14:57:18.217Z,3.63
2018-05-09T14:59:46.943Z,3.87
2018-05-09T15:02:14.921Z,4.40
2018-05-09T15:04:42.937Z,4.80
2018-05-09T15:07:10.898Z,8.90
2018-05-09T15:09:38.816Z,9.83
2018-05-09T15:12:06.809Z,10.37
2018-05-09T15:14:34.802Z,9.40
2018-05-09T15:17:02.774Z,9.07
2018-05-09T15:19:31.147Z,6.53
2018-05-09T15:21:59.933Z,7.67
2018-05-09T15:24:27.937Z,7.00
2018-05-09T15:26:56.902Z,5.13
2018-05-09T15:29:24.894Z,6.63
2018-05-09T15:31:53.615Z,9.03
2018-05-09T15:34:21.546Z,9.53
2018-05-09T15:36:49.474Z,10.33
2018-05-09T15:39:17.445Z,9.37
2018-05-09T15:41:45.370Z,8.97
2018-05-09T15:44:14.235Z,8.60
2018-05-09T15:46:42.250Z,7.03
2018-05-09T15:49:10.185Z,6.60
2018-05-09T15:51:38.156Z,5.67
2018-05-09T15:54:06.831Z,6.80
2018-05-09T15:56:34.730Z,4.93
2018-05-09T15:59:03.602Z,3.80
2018-05-09T16:01:32.387Z,4.33
2018-05-09T16:04:00.346Z,4.97
2018-05-09T16:06:28.375Z,6.40
2018-05-09T16:08:56.279Z,5.23
2018-05-09T16:11:25.763Z,4.60
2018-05-09T16:13:53.693Z,3.83
2018-05-09T16:16:22.406Z,6.73
2018-05-09T16:18:50.366Z,5.73
2018-05-09T16:21:18.351Z,4.70
2018-05-09T16:23:46.284Z,3.83
2018-05-09T16:26:14.981Z,4.00
2018-05-09T16:28:42.973Z,8.47
2018-05-09T16:31:10.993Z,4.37
2018-05-09T16:33:38.897Z,4.17
2018-05-09T16:36:06.882Z,6.67
2018-05-09T16:38:34.799Z,6.13
2018-05-09T16:41:02.782Z,8.37
2018-05-09T16:43:31.480Z,7.93
2018-05-09T16:46:00.175Z,5.13
2018-05-09T16:48:28.202Z,5.13
2018-05-09T16:50:56.181Z,7.07
2018-05-09T16:53:24.135Z,6.30
2018-05-09T16:55:52.153Z,7.63
2018-05-09T16:58:20.123Z,8.40
2018-05-09T17:00:48.086Z,6.27
2018-05-09T17:03:16.873Z,4.90
2018-05-09T17:05:45.605Z,5.67
2018-05-09T17:08:13.557Z,9.33
2018-05-09T17:10:41.556Z,5.43
2018-05-09T17:13:09.620Z,6.00
2018-05-09T17:15:37.558Z,6.80
2018-05-09T17:18:05.863Z,5.83
2018-05-09T17:20:33.869Z,4.90
2018-05-09T17:23:01.864Z,6.60
2018-05-09T17:25:29.787Z,3.73
2018-05-09T17:27:57.714Z,5.37
2018-05-09T17:30:25.675Z,6.17
2018-05-09T17:32:53.719Z,6.70
2018-05-09T17:35:21.770Z,5.27
2018-05-09T17:37:49.931Z,5.80
2018-05-09T17:40:17.907Z,6.73
2018-05-09T17:42:45.889Z,5.97
2018-05-09T17:45:15.306Z,4.50
2018-05-09T17:47:44.030Z,5.20
2018-05-09T17:50:12.019Z,5.53
2018-05-09T17:52:45.917Z,4.27
2018-05-09T17:55:13.838Z,3.63
2018-05-09T17:57:41.788Z,3.73
2018-05-09T18:00:09.796Z,4.80
2018-05-09T18:02:38.626Z,7.23
2018-05-09T18:05:06.574Z,4.60
2018-05-09T18:07:34.489Z,6.60
2018-05-09T18:10:02.475Z,3.60
2018-05-09T18:12:30.494Z,5.57
2018-05-09T18:14:58.423Z,3.87
2018-05-09T18:17:27.220Z,3.93
2018-05-09T18:19:55.904Z,2.73
2018-05-09T18:22:24.658Z,4.60
2018-05-09T18:24:52.598Z,3.33
2018-05-09T18:27:20.571Z,5.27
2018-05-09T18:29:48.584Z,3.07
2018-05-09T18:32:16.597Z,7.00
2018-05-09T18:34:44.495Z,5.63
2018-05-09T18:37:12.586Z,4.33
2018-05-09T18:39:40.590Z,4.50
2018-05-09T18:42:09.322Z,5.90
2018-05-09T18:44:37.361Z,5.63
2018-05-09T18:47:05.338Z,6.20
2018-05-09T18:49:33.529Z,8.40
2018-05-09T18:52:01.493Z,5.97
2018-05-09T18:54:29.456Z,6.83
2018-05-09T18:56:57.389Z,6.33
2018-05-09T18:59:26.077Z,6.27
2018-05-09T19:01:54.857Z,7.23
2018-05-09T19:04:23.610Z,5.33
2018-05-09T19:06:51.582Z,5.47
2018-05-09T19:09:20.355Z,7.93
2018-05-09T19:11:48.320Z,5.80
2018-05-09T19:14:16.219Z,7.63
2018-05-09T19:16:44.145Z,9.40
2018-05-09T19:19:12.066Z,8.27
2018-05-09T19:21:40.015Z,5.53
2018-05-09T19:24:07.966Z,6.00
2018-05-09T19:26:35.910Z,7.57
2018-05-09T19:29:03.871Z,6.67
2018-05-09T19:31:32.558Z,9.80
2018-05-09T19:34:01.220Z,7.50
2018-05-09T19:36:29.142Z,6.70
2018-05-09T19:38:57.059Z,8.93
2018-05-09T19:41:25.061Z,7.77
2018-05-09T19:43:52.961Z,8.43
2018-05-09T19:46:20.876Z,6.00
2018-05-09T19:48:49.578Z,6.20
2018-05-09T19:51:17.611Z,6.47
2018-05-09T19:53:45.557Z,6.40
2018-05-09T19:56:13.485Z,5.37
2018-05-09T19:58:42.207Z,8.43
2018-05-09T20:01:10.147Z,7.10
2018-05-09T20:03:38.081Z,5.47
2018-05-09T20:06:06.036Z,6.13
2018-05-09T20:08:34.012Z,8.67
2018-05-09T20:11:01.977Z,6.90
2018-05-09T20:13:29.900Z,7.83
2018-05-09T20:15:57.969Z,5.03
2018-05-09T20:18:25.974Z,8.20
2018-05-09T20:20:53.955Z,4.30
2018-05-09T20:23:21.890Z,7.53
2018-05-09T20:25:49.857Z,4.87
2018-05-09T20:28:17.771Z,4.30
2018-05-09T20:30:51.381Z,3.80
2018-05-09T20:33:19.299Z,4.00
2018-05-09T20:35:47.207Z,4.83
2018-05-09T20:38:15.127Z,5.40
2018-05-09T20:40:43.104Z,4.97
2018-05-09T20:43:11.094Z,4.40
2018-05-09T20:45:39.088Z,4.87
2018-05-09T20:48:07.026Z,6.13
2018-05-09T20:50:34.928Z,3.80
2018-05-09T20:53:02.944Z,3.33
2018-05-09T20:55:36.906Z,4.20
2018-05-09T20:58:04.894Z,2.47
2018-05-09T21:00:33.578Z,3.10
2018-05-09T21:03:01.564Z,2.80
2018-05-09T21:05:30.290Z,4.00
2018-05-09T21:07:58.207Z,3.20
2018-05-09T21:10:26.976Z,5.73
2018-05-09T21:12:54.914Z,3.70
2018-05-09T21:15:23.759Z,2.53
2018-05-09T21:17:52.511Z,3.03
2018-05-09T21:20:20.509Z,4.53
2018-05-09T21:22:49.194Z,4.10
2018-05-09T21:25:17.345Z,2.50
2018-05-09T21:27:45.355Z,3.33
2018-05-09T21:30:13.274Z,3.13
2018-05-09T21:32:41.238Z,2.60
2018-05-09T21:35:09.201Z,4.57
2018-05-09T21:37:37.180Z,3.27
2018-05-09T21:40:05.166Z,3.37
2018-05-09T21:42:33.186Z,3.63
2018-05-09T21:45:01.147Z,3.93
2018-05-09T21:47:29.816Z,3.20
2018-05-09T21:49:57.809Z,2.10
2018-05-09T21:52:25.795Z,3.50
2018-05-09T21:54:53.730Z,3.83
2018-05-09T21:57:22.449Z,3.17
2018-05-09T21:59:50.367Z,3.40
2018-05-09T22:02:18.314Z,3.00
2018-05-09T22:04:46.250Z,3.90
2018-05-09T22:07:14.226Z,4.23
2018-05-09T22:09:42.203Z,2.97
2018-05-09T22:12:10.151Z,2.90
2018-05-09T22:14:38.240Z,6.40
2018-05-09T22:17:06.213Z,6.03
2018-05-09T22:19:34.233Z,3.13
2018-05-09T22:22:02.923Z,4.60
2018-05-09T22:24:30.997Z,5.60
2018-05-09T22:26:58.985Z,3.43
2018-05-09T22:29:27.705Z,3.50
2018-05-09T22:31:55.630Z,4.63
2018-05-09T22:34:24.364Z,3.30
2018-05-09T22:36:52.375Z,2.80
2018-05-09T22:39:20.303Z,3.30
2018-05-09T22:41:48.254Z,5.57
2018-05-09T22:44:16.226Z,2.63
2018-05-09T22:46:44.147Z,2.53
2018-05-09T22:49:12.096Z,6.27
2018-05-09T22:51:40.089Z,3.17
2018-05-09T22:54:08.081Z,4.13
2018-05-09T22:56:36.859Z,4.50
2018-05-09T22:59:05.539Z,4.97
2018-05-09T23:01:33.461Z,3.30
2018-05-09T23:04:01.406Z,4.30
2018-05-09T23:06:29.337Z,4.30
2018-05-09T23:08:57.326Z,5.87
2018-05-09T23:11:25.316Z,5.83
2018-05-09T23:13:53.291Z,3.73
2018-05-09T23:16:21.220Z,5.13
2018-05-09T23:18:49.271Z,3.83
2018-05-09T23:21:17.178Z,4.87
2018-05-09T23:23:45.904Z,3.53
2018-05-09T23:26:13.867Z,3.30
2018-05-09T23:28:41.893Z,4.67
2018-05-09T23:31:09.870Z,4.50
2018-05-09T23:33:38.607Z,2.63
2018-05-09T23:36:06.630Z,2.77
2018-05-09T23:38:35.332Z,3.60
2018-05-09T23:41:04.077Z,2.90
2018-05-09T23:43:32.068Z,2.97
2018-05-09T23:46:00.816Z,5.37
2018-05-09T23:48:28.836Z,3.10
2018-05-09T23:50:57.654Z,5.17
2018-05-09T23:53:25.572Z,3.63
2018-05-09T23:55:53.608Z,2.63
2018-05-09T23:58:22.310Z,2.40
